Time;durP1;ratioP1;P1;durP2;ratioP2;P2;SDS_P1;SDS_P2;PMS_P1;PMS_P2;Temp;Humidity;BMP_temperature;BMP_pressure;BME280_temperature;BME280_humidity;BME280_pressure;Samples;Min_cycle;Max_cycle;Signal;HPM_P1;HPM_P2
2022/03/02 00:01:55;;;;;;;57.83;39.65;;;;;;;;;;5012930;28;20116;-63
2022/03/02 00:04:21;;;;;;;57.10;39.90;;;;;;;;;;5013059;28;20124;-61
2022/03/02 00:06:47;;;;;;;56.33;38.60;;;;;;;;;;5012739;28;20523;-61
2022/03/02 00:09:14;;;;;;;53.75;38.25;;;;;;;;;;5009777;28;20598;-60
2022/03/02 00:11:40;;;;;;;57.35;38.83;;;;;;;;;;5014335;28;20041;-61
2022/03/02 00:14:06;;;;;;;52.03;38.58;;;;;;;;;;5013263;28;20076;-60
2022/03/02 00:16:32;;;;;;;54.50;39.35;;;;;;;;;;5012386;28;20034;-60
2022/03/02 00:18:59;;;;;;;58.00;38.00;;;;;;;;;;5014702;28;20034;-61
2022/03/02 00:21:25;;;;;;;59.45;39.83;;;;;;;;;;5013243;28;20067;-61
2022/03/02 00:23:52;;;;;;;57.95;41.08;;;;;;;;;;5010079;28;20038;-62
2022/03/02 00:26:19;;;;;;;53.85;39.53;;;;;;;;;;5010305;28;20037;-60
2022/03/02 00:28:45;;;;;;;60.50;40.60;;;;;;;;;;5010335;28;20041;-59
2022/03/02 00:31:11;;;;;;;59.15;40.92;;;;;;;;;;5013048;28;20053;-61
2022/03/02 00:33:38;;;;;;;55.80;40.45;;;;;;;;;;5021948;28;20084;-62
2022/03/02 00:36:04;;;;;;;60.88;42.70;;;;;;;;;;5010026;28;20459;-60
2022/03/02 00:38:30;;;;;;;56.20;40.30;;;;;;;;;;5023180;28;20041;-61
2022/03/02 00:40:56;;;;;;;54.97;39.58;;;;;;;;;;5013248;28;20145;-61
2022/03/02 00:43:23;;;;;;;57.83;40.95;;;;;;;;;;5010322;28;20069;-61
2022/03/02 00:45:49;;;;;;;55.70;40.00;;;;;;;;;;5008954;28;20073;-61
2022/03/02 00:48:15;;;;;;;55.67;37.72;;;;;;;;;;4994443;28;20072;-60
2022/03/02 00:50:41;;;;;;;58.33;41.25;;;;;;;;;;5031555;28;20047;-61
2022/03/02 00:53:08;;;;;;;58.25;41.92;;;;;;;;;;5011587;28;20299;-61
2022/03/02 00:55:34;;;;;;;59.58;40.58;;;;;;;;;;5014180;28;20041;-62
2022/03/02 00:58:01;;;;;;;58.15;40.10;;;;;;;;;;5013514;28;20506;-62
2022/03/02 01:00:27;;;;;;;59.75;39.35;;;;;;;;;;4993050;28;20046;-60
2022/03/02 01:02:53;;;;;;;55.85;39.75;;;;;;;;;;5010922;28;20138;-61
2022/03/02 01:05:19;;;;;;;61.35;42.97;;;;;;;;;;5012098;28;20048;-61
2022/03/02 01:07:46;;;;;;;60.58;41.38;;;;;;;;;;5010633;28;20373;-60
2022/03/02 01:10:12;;;;;;;56.88;38.53;;;;;;;;;;5010886;28;20124;-61
2022/03/02 01:12:39;;;;;;;61.05;42.60;;;;;;;;;;5010437;28;20042;-61
2022/03/02 01:15:06;;;;;;;63.40;44.17;;;;;;;;;;5040400;28;20108;-60
2022/03/02 01:17:32;;;;;;;57.50;40.30;;;;;;;;;;5018637;28;20445;-60
2022/03/02 01:19:58;;;;;;;63.80;44.42;;;;;;;;;;5017344;28;20056;-61
2022/03/02 01:22:24;;;;;;;67.22;45.42;;;;;;;;;;5013159;28;20106;-62
2022/03/02 01:24:50;;;;;;;57.03;38.72;;;;;;;;;;5022846;28;20136;-61
2022/03/02 01:27:16;;;;;;;63.25;41.80;;;;;;;;;;5039148;28;20484;-62
2022/03/02 01:29:42;;;;;;;63.88;42.88;;;;;;;;;;5038437;28;20046;-60
2022/03/02 01:32:09;;;;;;;65.85;44.92;;;;;;;;;;5009801;28;20033;-61
2022/03/02 01:34:36;;;;;;;65.15;43.97;;;;;;;;;;5011578;28;20385;-61
2022/03/02 01:37:02;;;;;;;64.20;45.85;;;;;;;;;;5007742;28;20556;-62
2022/03/02 01:39:28;;;;;;;65.68;45.72;;;;;;;;;;5017079;28;20610;-62
2022/03/02 01:41:54;;;;;;;57.13;38.65;;;;;;;;;;5039176;28;20042;-61
2022/03/02 01:44:20;;;;;;;64.55;44.85;;;;;;;;;;5012386;28;20610;-63
2022/03/02 01:46:46;;;;;;;60.70;42.08;;;;;;;;;;5015266;28;20033;-62
2022/03/02 01:49:12;;;;;;;60.53;41.78;;;;;;;;;;5010531;28;20180;-61
2022/03/02 01:51:39;;;;;;;58.38;42.03;;;;;;;;;;5008876;28;20033;-61
2022/03/02 01:54:06;;;;;;;61.55;43.22;;;;;;;;;;5009213;28;20115;-61
2022/03/02 01:56:32;;;;;;;67.95;46.65;;;;;;;;;;5013224;28;20041;-62
2022/03/02 01:58:58;;;;;;;60.33;42.42;;;;;;;;;;5012753;28;20038;-62
2022/03/02 02:01:25;;;;;;;55.65;35.13;;;;;;;;;;5007916;28;20115;-61
2022/03/02 02:03:51;;;;;;;63.97;45.25;;;;;;;;;;5011306;28;20275;-60
2022/03/02 02:06:17;;;;;;;67.20;45.65;;;;;;;;;;5007911;28;20125;-62
2022/03/02 02:08:43;;;;;;;67.00;43.92;;;;;;;;;;5009080;28;20049;-61
2022/03/02 02:11:11;;;;;;;70.68;45.40;;;;;;;;;;5011528;28;20520;-61
2022/03/02 02:13:37;;;;;;;66.60;43.42;;;;;;;;;;5022099;28;20038;-61
2022/03/02 02:16:04;;;;;;;68.82;45.97;;;;;;;;;;5012641;28;20038;-61
2022/03/02 02:18:30;;;;;;;69.20;47.65;;;;;;;;;;5037305;28;20049;-61
2022/03/02 02:21:00;;;;;;;67.50;43.55;;;;;;;;;;5007525;28;20420;-61
2022/03/02 02:23:26;;;;;;;69.95;47.75;;;;;;;;;;5012006;28;20042;-61
2022/03/02 02:25:53;;;;;;;68.63;46.10;;;;;;;;;;5009544;28;20038;-61
2022/03/02 02:28:22;;;;;;;67.60;43.47;;;;;;;;;;5012771;28;20419;-61
2022/03/02 02:30:48;;;;;;;71.40;48.38;;;;;;;;;;5010115;28;20041;-61
2022/03/02 02:33:14;;;;;;;76.20;50.08;;;;;;;;;;5012917;28;20048;-61
2022/03/02 02:35:40;;;;;;;75.18;47.47;;;;;;;;;;5010415;28;20065;-61
2022/03/02 02:38:07;;;;;;;71.57;44.35;;;;;;;;;;5015530;28;20041;-61
2022/03/02 02:40:34;;;;;;;68.13;45.58;;;;;;;;;;5016102;28;20077;-59
2022/03/02 02:43:01;;;;;;;70.40;46.88;;;;;;;;;;5014472;28;20041;-59
2022/03/02 02:45:27;;;;;;;76.13;50.20;;;;;;;;;;5013363;28;20056;-60
2022/03/02 02:47:58;;;;;;;70.88;47.65;;;;;;;;;;5014118;28;20049;-60
2022/03/02 02:50:26;;;;;;;76.60;49.90;;;;;;;;;;5042790;28;20566;-60
2022/03/02 02:52:53;;;;;;;68.28;46.97;;;;;;;;;;5012357;28;20064;-60
2022/03/02 02:55:20;;;;;;;72.97;48.10;;;;;;;;;;5014028;28;20045;-59
2022/03/02 02:57:46;;;;;;;71.75;50.05;;;;;;;;;;5014261;28;20395;-60
2022/03/02 03:00:15;;;;;;;66.40;43.17;;;;;;;;;;5015151;28;20117;-60
2022/03/02 03:02:42;;;;;;;72.55;47.70;;;;;;;;;;5016530;28;20407;-59
2022/03/02 03:05:12;;;;;;;73.38;47.85;;;;;;;;;;5014581;28;20368;-60
2022/03/02 03:07:38;;;;;;;77.07;49.53;;;;;;;;;;5015150;28;20484;-59
2022/03/02 03:10:06;;;;;;;66.78;42.28;;;;;;;;;;5042943;28;20046;-61
2022/03/02 03:12:32;;;;;;;75.55;50.50;;;;;;;;;;5018626;28;20037;-59
2022/03/02 03:14:58;;;;;;;78.78;49.63;;;;;;;;;;5015508;28;20038;-60
2022/03/02 03:17:24;;;;;;;76.78;50.55;;;;;;;;;;5014660;28;20038;-59
2022/03/02 03:19:50;;;;;;;74.93;47.72;;;;;;;;;;5042691;28;20045;-60
2022/03/02 03:22:17;;;;;;;74.97;49.72;;;;;;;;;;5014110;28;20045;-59
2022/03/02 03:24:43;;;;;;;69.90;45.75;;;;;;;;;;5012764;28;20041;-60
2022/03/02 03:27:10;;;;;;;68.78;48.33;;;;;;;;;;5015032;28;20072;-59
2022/03/02 03:29:36;;;;;;;66.57;45.50;;;;;;;;;;5013513;28;20038;-60
2022/03/02 03:32:02;;;;;;;73.18;45.35;;;;;;;;;;5015538;28;20037;-60
2022/03/02 03:34:28;;;;;;;72.85;49.08;;;;;;;;;;5015410;28;20038;-59
2022/03/02 03:36:54;;;;;;;73.50;50.50;;;;;;;;;;5017644;28;20061;-59
2022/03/02 03:39:20;;;;;;;76.10;50.92;;;;;;;;;;5019383;28;20149;-60
2022/03/02 03:41:46;;;;;;;70.93;47.85;;;;;;;;;;5013109;28;20554;-60
2022/03/02 03:44:12;;;;;;;70.75;47.75;;;;;;;;;;5010046;28;20424;-60
2022/03/02 03:46:39;;;;;;;73.75;49.10;;;;;;;;;;5013274;28;20490;-60
2022/03/02 03:49:05;;;;;;;69.40;45.53;;;;;;;;;;5013199;28;20476;-61
2022/03/02 03:51:31;;;;;;;74.60;49.50;;;;;;;;;;5016391;28;20044;-61
2022/03/02 03:53:57;;;;;;;69.63;50.13;;;;;;;;;;5012894;28;20447;-60
2022/03/02 03:56:23;;;;;;;75.05;50.30;;;;;;;;;;5013951;28;20041;-63
2022/03/02 03:58:49;;;;;;;72.97;48.38;;;;;;;;;;5013990;28;20130;-61
2022/03/02 04:01:15;;;;;;;71.28;48.15;;;;;;;;;;5015610;28;20109;-61
2022/03/02 04:03:41;;;;;;;72.50;49.10;;;;;;;;;;5008410;28;20042;-61
2022/03/02 04:06:07;;;;;;;72.65;50.38;;;;;;;;;;5015775;28;20064;-60
2022/03/02 04:08:33;;;;;;;79.32;52.80;;;;;;;;;;5014084;28;20045;-60
2022/03/02 04:11:00;;;;;;;78.85;51.72;;;;;;;;;;4996427;28;20484;-60
2022/03/02 04:13:26;;;;;;;76.53;50.58;;;;;;;;;;5017106;28;20107;-60
2022/03/02 04:15:52;;;;;;;79.90;52.85;;;;;;;;;;5011288;28;20050;-61
2022/03/02 04:18:18;;;;;;;77.90;52.20;;;;;;;;;;5010881;28;20480;-61
2022/03/02 04:20:44;;;;;;;83.95;53.30;;;;;;;;;;5010776;28;20418;-60
2022/03/02 04:23:10;;;;;;;76.75;52.45;;;;;;;;;;5013052;28;20046;-60
2022/03/02 04:25:36;;;;;;;76.88;50.85;;;;;;;;;;5014284;28;20041;-61
2022/03/02 04:28:03;;;;;;;81.75;52.88;;;;;;;;;;5011532;28;20121;-60
2022/03/02 04:30:30;;;;;;;75.50;48.78;;;;;;;;;;5009003;28;20099;-60
2022/03/02 04:32:57;;;;;;;82.50;53.63;;;;;;;;;;5014468;28;20033;-60
2022/03/02 04:35:23;;;;;;;72.53;48.30;;;;;;;;;;5009552;28;20073;-60
2022/03/02 04:37:49;;;;;;;74.25;49.55;;;;;;;;;;5010992;28;20492;-60
2022/03/02 04:40:16;;;;;;;77.78;50.97;;;;;;;;;;5008802;28;20125;-60
2022/03/02 04:42:42;;;;;;;74.95;51.35;;;;;;;;;;5009816;28;20046;-61
2022/03/02 04:45:08;;;;;;;74.30;48.35;;;;;;;;;;5012287;28;20041;-60
2022/03/02 04:47:35;;;;;;;77.72;51.10;;;;;;;;;;5007776;28;20357;-63
2022/03/02 04:50:01;;;;;;;74.22;49.55;;;;;;;;;;5010218;28;20444;-60
2022/03/02 04:52:28;;;;;;;72.88;48.00;;;;;;;;;;5011646;28;20037;-60
2022/03/02 04:55:06;;;;;;;78.07;51.97;;;;;;;;;;5016474;28;20045;-60
2022/03/02 04:57:33;;;;;;;75.65;50.92;;;;;;;;;;5039473;28;20484;-61
2022/03/02 04:59:59;;;;;;;80.82;49.90;;;;;;;;;;5018858;28;20045;-60
2022/03/02 05:02:25;;;;;;;74.57;50.35;;;;;;;;;;5012659;28;20383;-61
2022/03/02 05:04:51;;;;;;;69.32;47.35;;;;;;;;;;5012120;28;20125;-61
2022/03/02 05:07:17;;;;;;;76.45;49.35;;;;;;;;;;5013988;28;20076;-61
2022/03/02 05:09:44;;;;;;;78.00;51.95;;;;;;;;;;5006552;28;20527;-59
2022/03/02 05:12:10;;;;;;;78.28;51.50;;;;;;;;;;5010924;28;20033;-60
2022/03/02 05:14:36;;;;;;;78.25;49.58;;;;;;;;;;5013553;28;20447;-60
2022/03/02 05:17:03;;;;;;;73.97;51.10;;;;;;;;;;5013975;28;20076;-61
2022/03/02 05:19:29;;;;;;;76.63;51.08;;;;;;;;;;5013153;28;20046;-60
2022/03/02 05:21:55;;;;;;;79.13;51.35;;;;;;;;;;5012351;28;20042;-60
2022/03/02 05:24:21;;;;;;;76.05;50.00;;;;;;;;;;5025890;28;20041;-60
2022/03/02 05:26:47;;;;;;;76.07;49.22;;;;;;;;;;5014229;28;20508;-62
2022/03/02 05:29:14;;;;;;;77.18;51.00;;;;;;;;;;5038457;28;20045;-60
2022/03/02 05:31:40;;;;;;;74.43;49.38;;;;;;;;;;5010540;28;20045;-63
2022/03/02 05:34:06;;;;;;;72.80;49.47;;;;;;;;;;5011207;28;20119;-60
2022/03/02 05:36:32;;;;;;;79.25;51.15;;;;;;;;;;5022591;28;20179;-61
2022/03/02 05:38:58;;;;;;;75.30;46.30;;;;;;;;;;5014868;28;20490;-60
2022/03/02 05:41:25;;;;;;;76.22;50.33;;;;;;;;;;5011716;28;20050;-62
2022/03/02 05:43:53;;;;;;;74.68;48.35;;;;;;;;;;5009846;28;20038;-61
2022/03/02 05:46:19;;;;;;;77.50;50.75;;;;;;;;;;5008363;28;20128;-60
2022/03/02 05:48:45;;;;;;;78.28;50.55;;;;;;;;;;5039341;28;20104;-62
2022/03/02 05:51:11;;;;;;;78.15;53.72;;;;;;;;;;5040851;28;20045;-60
2022/03/02 05:53:37;;;;;;;74.00;48.55;;;;;;;;;;5009489;28;20048;-60
2022/03/02 05:56:04;;;;;;;75.20;51.72;;;;;;;;;;5007743;28;20034;-60
2022/03/02 05:58:30;;;;;;;73.40;48.38;;;;;;;;;;5010773;28;20037;-60
2022/03/02 06:00:57;;;;;;;77.25;51.72;;;;;;;;;;5012593;28;20468;-60
2022/03/02 06:03:23;;;;;;;73.32;47.95;;;;;;;;;;5011849;28;20475;-61
2022/03/02 06:05:49;;;;;;;72.35;46.03;;;;;;;;;;5012425;28;20499;-61
2022/03/02 06:08:15;;;;;;;82.10;52.08;;;;;;;;;;5021988;28;20046;-60
2022/03/02 06:10:41;;;;;;;72.13;44.30;;;;;;;;;;5038983;28;20050;-61
2022/03/02 06:13:07;;;;;;;73.80;47.75;;;;;;;;;;5018264;28;20495;-61
2022/03/02 06:15:34;;;;;;;78.85;50.10;;;;;;;;;;5009557;28;20092;-60
2022/03/02 06:18:01;;;;;;;73.47;46.15;;;;;;;;;;5018535;28;20064;-61
2022/03/02 06:20:28;;;;;;;91.20;58.15;;;;;;;;;;5014303;28;20041;-61
2022/03/02 06:22:54;;;;;;;80.80;54.33;;;;;;;;;;5012161;28;21665;-61
2022/03/02 06:25:21;;;;;;;84.20;56.28;;;;;;;;;;5013365;28;20046;-60
2022/03/02 06:27:47;;;;;;;81.50;50.92;;;;;;;;;;5042310;28;20069;-61
2022/03/02 06:30:13;;;;;;;77.45;50.38;;;;;;;;;;5043470;28;20041;-61
2022/03/02 06:32:39;;;;;;;82.03;55.10;;;;;;;;;;5015641;28;20069;-62
2022/03/02 06:35:06;;;;;;;79.68;53.05;;;;;;;;;;5018356;28;20037;-62
2022/03/02 06:37:33;;;;;;;81.22;54.15;;;;;;;;;;5010736;28;20060;-61
2022/03/02 06:40:18;;;;;;;82.95;55.25;;;;;;;;;;5011953;28;20377;-62
2022/03/02 06:42:50;;;;;;;78.15;53.35;;;;;;;;;;5030213;28;20079;-61
2022/03/02 06:45:22;;;;;;;85.32;52.47;;;;;;;;;;5010868;28;20499;-60
2022/03/02 06:47:53;;;;;;;85.57;56.60;;;;;;;;;;5011426;28;20483;-61
2022/03/02 06:50:24;;;;;;;82.47;53.72;;;;;;;;;;5013819;28;20038;-61
2022/03/02 06:52:53;;;;;;;83.32;56.10;;;;;;;;;;5011728;28;20055;-60
2022/03/02 06:55:19;;;;;;;75.35;49.85;;;;;;;;;;5014414;28;20034;-60
2022/03/02 06:58:00;;;;;;;84.68;55.80;;;;;;;;;;5011303;28;20125;-60
2022/03/02 07:00:26;;;;;;;82.03;54.55;;;;;;;;;;4992637;28;20404;-60
2022/03/02 07:02:53;;;;;;;79.18;50.53;;;;;;;;;;5009613;28;20265;-61
2022/03/02 07:05:19;;;;;;;80.82;53.83;;;;;;;;;;5016268;28;20587;-59
2022/03/02 07:07:46;;;;;;;86.18;57.40;;;;;;;;;;5013675;28;20037;-61
2022/03/02 07:10:12;;;;;;;76.95;52.65;;;;;;;;;;5013840;28;20057;-61
2022/03/02 07:12:39;;;;;;;66.70;43.10;;;;;;;;;;5020920;28;20096;-61
2022/03/02 07:15:05;;;;;;;81.10;53.83;;;;;;;;;;5017029;28;20119;-61
2022/03/02 07:17:34;;;;;;;86.43;54.63;;;;;;;;;;5008766;28;20042;-61
2022/03/02 07:20:01;;;;;;;75.78;48.55;;;;;;;;;;5010478;28;20100;-63
2022/03/02 07:22:34;;;;;;;56.88;36.28;;;;;;;;;;5008933;28;20396;-61
2022/03/02 07:25:03;;;;;;;78.43;50.95;;;;;;;;;;5010181;28;20096;-64
2022/03/02 07:27:29;;;;;;;55.38;34.95;;;;;;;;;;5018518;28;20037;-59
2022/03/02 07:29:56;;;;;;;68.05;43.28;;;;;;;;;;5011066;28;20073;-59
2022/03/02 07:32:23;;;;;;;69.00;47.50;;;;;;;;;;5011277;28;20041;-60
2022/03/02 07:34:54;;;;;;;74.45;48.80;;;;;;;;;;5009791;28;20108;-61
2022/03/02 07:37:21;;;;;;;60.53;41.90;;;;;;;;;;5011841;28;20057;-59
2022/03/02 07:39:48;;;;;;;76.35;52.58;;;;;;;;;;5015784;28;20086;-60
2022/03/02 07:42:14;;;;;;;73.38;48.10;;;;;;;;;;5009060;28;20096;-60
2022/03/02 07:44:41;;;;;;;78.15;51.78;;;;;;;;;;5010757;28;20099;-62
2022/03/02 07:47:08;;;;;;;74.85;50.15;;;;;;;;;;5013996;28;20119;-60
2022/03/02 07:49:35;;;;;;;72.05;46.80;;;;;;;;;;5014509;28;20411;-61
2022/03/02 07:52:03;;;;;;;74.82;49.30;;;;;;;;;;5015217;28;20492;-60
2022/03/02 07:54:31;;;;;;;77.30;52.80;;;;;;;;;;5008470;28;20454;-60
2022/03/02 07:56:58;;;;;;;63.53;38.05;;;;;;;;;;5008895;28;20056;-61
2022/03/02 07:59:24;;;;;;;76.20;50.20;;;;;;;;;;5040659;28;20531;-61
2022/03/02 08:01:51;;;;;;;72.30;46.95;;;;;;;;;;5010776;28;20041;-60
2022/03/02 08:04:17;;;;;;;73.13;48.13;;;;;;;;;;5010599;28;20096;-61
2022/03/02 08:06:44;;;;;;;73.43;46.40;;;;;;;;;;5011422;28;20029;-60
2022/03/02 08:09:12;;;;;;;68.88;48.70;;;;;;;;;;5010081;28;20038;-61
2022/03/02 08:11:39;;;;;;;71.75;48.58;;;;;;;;;;5016440;28;20041;-61
2022/03/02 08:14:06;;;;;;;68.00;47.13;;;;;;;;;;5015794;28;20041;-61
2022/03/02 08:16:32;;;;;;;62.40;42.58;;;;;;;;;;5012989;28;20121;-60
2022/03/02 08:19:00;;;;;;;72.38;49.47;;;;;;;;;;5025900;28;20045;-61
2022/03/02 08:21:27;;;;;;;69.47;48.05;;;;;;;;;;5019045;28;20040;-60
2022/03/02 08:23:56;;;;;;;66.97;44.95;;;;;;;;;;5020473;28;20052;-59
2022/03/02 08:26:23;;;;;;;65.60;46.13;;;;;;;;;;5013280;28;20459;-62
2022/03/02 08:28:51;;;;;;;56.90;41.95;;;;;;;;;;5018682;28;20121;-59
2022/03/02 08:31:17;;;;;;;59.05;43.85;;;;;;;;;;5015760;28;20046;-60
2022/03/02 08:33:45;;;;;;;57.67;42.30;;;;;;;;;;5013173;28;20041;-60
2022/03/02 08:36:12;;;;;;;56.10;39.70;;;;;;;;;;5041956;28;20140;-60
2022/03/02 08:38:42;;;;;;;51.83;39.38;;;;;;;;;;5017852;28;20506;-60
2022/03/02 08:41:10;;;;;;;49.60;36.47;;;;;;;;;;5013377;28;20041;-60
2022/03/02 08:43:36;;;;;;;50.95;39.63;;;;;;;;;;5043915;28;20033;-61
2022/03/02 08:46:03;;;;;;;52.63;39.65;;;;;;;;;;5000813;28;20053;-61
2022/03/02 08:48:29;;;;;;;52.33;40.35;;;;;;;;;;5014071;28;20048;-61
2022/03/02 08:50:57;;;;;;;49.13;37.28;;;;;;;;;;5023367;28;20041;-62
2022/03/02 08:53:24;;;;;;;47.42;37.58;;;;;;;;;;5020255;28;20044;-61
2022/03/02 08:55:51;;;;;;;48.88;37.53;;;;;;;;;;5013034;28;20503;-62
2022/03/02 08:58:17;;;;;;;47.70;38.15;;;;;;;;;;5013790;28;20040;-61
2022/03/02 09:00:43;;;;;;;48.60;38.28;;;;;;;;;;5020027;28;20495;-61
2022/03/02 09:03:13;;;;;;;47.08;38.00;;;;;;;;;;5018351;28;20050;-61
2022/03/02 09:05:40;;;;;;;42.15;32.72;;;;;;;;;;5019413;28;20041;-61
2022/03/02 09:08:08;;;;;;;48.83;37.03;;;;;;;;;;5021265;28;20068;-61
2022/03/02 09:10:34;;;;;;;45.30;35.00;;;;;;;;;;5024476;28;20052;-61
2022/03/02 09:13:00;;;;;;;45.33;36.00;;;;;;;;;;4999471;28;20038;-63
2022/03/02 09:15:29;;;;;;;43.75;36.25;;;;;;;;;;5023612;28;20034;-62
2022/03/02 09:17:56;;;;;;;43.55;34.85;;;;;;;;;;5012656;28;20538;-61
2022/03/02 09:20:26;;;;;;;46.00;36.25;;;;;;;;;;4996853;28;20049;-62
2022/03/02 09:22:54;;;;;;;45.03;33.70;;;;;;;;;;5018620;28;20175;-63
2022/03/02 09:25:21;;;;;;;39.17;30.02;;;;;;;;;;5012247;28;20041;-61
2022/03/02 09:27:50;;;;;;;40.10;33.08;;;;;;;;;;5022361;28;20211;-61
2022/03/02 09:30:16;;;;;;;40.85;33.15;;;;;;;;;;5040712;28;20132;-61
2022/03/02 09:32:43;;;;;;;40.25;32.03;;;;;;;;;;5015168;28;20049;-62
2022/03/02 09:35:13;;;;;;;43.38;34.30;;;;;;;;;;5020199;28;20049;-61
2022/03/02 09:37:42;;;;;;;40.30;32.85;;;;;;;;;;5019513;28;20503;-59
2022/03/02 09:40:11;;;;;;;43.88;34.38;;;;;;;;;;5023940;28;20049;-61
2022/03/02 09:42:41;;;;;;;41.85;32.70;;;;;;;;;;5021509;28;20052;-60
2022/03/02 09:45:09;;;;;;;40.50;33.25;;;;;;;;;;5015631;28;20518;-60
2022/03/02 09:47:45;;;;;;;38.38;33.80;;;;;;;;;;5013788;28;20046;-60
2022/03/02 09:50:13;;;;;;;38.47;31.88;;;;;;;;;;5018091;28;20060;-61
2022/03/02 09:52:40;;;;;;;41.78;33.47;;;;;;;;;;5016716;28;20048;-61
2022/03/02 09:55:09;;;;;;;38.15;32.47;;;;;;;;;;5024357;28;20456;-61
2022/03/02 09:57:41;;;;;;;37.50;32.25;;;;;;;;;;5025912;28;20041;-61
2022/03/02 10:00:08;;;;;;;37.80;31.30;;;;;;;;;;5013960;28;20060;-60
2022/03/02 10:02:40;;;;;;;34.75;29.33;;;;;;;;;;5021966;28;20483;-60
2022/03/02 10:05:08;;;;;;;39.22;31.83;;;;;;;;;;5010067;28;20046;-60
2022/03/02 10:07:35;;;;;;;38.67;30.00;;;;;;;;;;5008324;28;20049;-61
2022/03/02 10:10:23;;;;;;;37.25;32.22;;;;;;;;;;5014359;28;20045;-63
2022/03/02 10:12:50;;;;;;;36.15;30.42;;;;;;;;;;5018689;28;20041;-61
2022/03/02 10:15:17;;;;;;;36.00;30.80;;;;;;;;;;5011136;28;20210;-62
2022/03/02 10:17:44;;;;;;;36.25;30.60;;;;;;;;;;5018795;28;20034;-62
2022/03/02 10:20:10;;;;;;;36.10;31.30;;;;;;;;;;5009281;28;20061;-62
2022/03/02 10:22:48;;;;;;;38.20;31.83;;;;;;;;;;5012505;28;20103;-61
2022/03/02 10:25:17;;;;;;;35.53;29.35;;;;;;;;;;5015516;28;20187;-62
2022/03/02 10:27:55;;;;;;;36.35;30.67;;;;;;;;;;5016172;28;20045;-62
2022/03/02 10:30:21;;;;;;;36.00;31.30;;;;;;;;;;5007121;28;20058;-62
2022/03/02 10:32:49;;;;;;;35.03;30.20;;;;;;;;;;5008748;28;20137;-62
2022/03/02 10:35:21;;;;;;;36.33;31.48;;;;;;;;;;5011988;28;20033;-62
2022/03/02 10:37:50;;;;;;;36.08;30.35;;;;;;;;;;5010614;28;20056;-62
2022/03/02 10:40:20;;;;;;;34.85;29.73;;;;;;;;;;5012965;28;20061;-61
2022/03/02 10:42:55;;;;;;;34.85;29.05;;;;;;;;;;5021602;28;20033;-61
2022/03/02 10:45:24;;;;;;;34.60;27.60;;;;;;;;;;5013661;28;20411;-60
2022/03/02 10:47:59;;;;;;;36.55;30.17;;;;;;;;;;5009647;28;20045;-60
2022/03/02 10:50:35;;;;;;;32.90;28.55;;;;;;;;;;5018695;28;20464;-60
2022/03/02 10:53:03;;;;;;;34.20;29.77;;;;;;;;;;5014340;28;20454;-62
2022/03/02 10:55:31;;;;;;;36.83;30.15;;;;;;;;;;5011209;28;20050;-61
2022/03/02 10:57:57;;;;;;;34.63;29.05;;;;;;;;;;5023786;28;20428;-60
2022/03/02 11:00:24;;;;;;;31.80;28.40;;;;;;;;;;5021659;28;20056;-61
2022/03/02 11:02:56;;;;;;;32.17;28.30;;;;;;;;;;5019614;28;20046;-61
2022/03/02 11:05:23;;;;;;;32.10;28.10;;;;;;;;;;5017960;28;20052;-61
2022/03/02 11:07:49;;;;;;;34.53;28.77;;;;;;;;;;5020700;28;20049;-61
2022/03/02 11:10:17;;;;;;;33.30;27.98;;;;;;;;;;5042619;28;20531;-61
2022/03/02 11:12:44;;;;;;;30.77;27.48;;;;;;;;;;5016440;28;20396;-61
2022/03/02 11:15:11;;;;;;;30.55;27.27;;;;;;;;;;5017373;28;20037;-61
2022/03/02 11:17:50;;;;;;;30.40;27.13;;;;;;;;;;5016330;28;20540;-61
2022/03/02 11:20:16;;;;;;;31.25;27.90;;;;;;;;;;5020118;28;20452;-61
2022/03/02 11:22:50;;;;;;;29.88;25.50;;;;;;;;;;5023033;28;20044;-61
2022/03/02 11:25:16;;;;;;;30.55;25.08;;;;;;;;;;5015577;28;20113;-60
2022/03/02 11:27:43;;;;;;;27.88;24.88;;;;;;;;;;5011764;28;20053;-60
2022/03/02 11:30:09;;;;;;;33.20;26.60;;;;;;;;;;5027295;28;20116;-60
2022/03/02 11:32:36;;;;;;;28.63;24.75;;;;;;;;;;5012450;28;20052;-60
2022/03/02 11:35:03;;;;;;;29.20;23.88;;;;;;;;;;5012308;28;20381;-61
2022/03/02 11:37:31;;;;;;;31.35;27.38;;;;;;;;;;5043898;28;20502;-61
2022/03/02 11:39:58;;;;;;;29.52;24.95;;;;;;;;;;5012270;28;20052;-61
2022/03/02 11:42:28;;;;;;;28.77;25.23;;;;;;;;;;5044118;28;20123;-60
2022/03/02 11:44:55;;;;;;;28.60;24.45;;;;;;;;;;5010538;28;20349;-61
2022/03/02 11:47:23;;;;;;;28.45;24.95;;;;;;;;;;5027330;28;20037;-60
2022/03/02 11:49:57;;;;;;;29.30;23.55;;;;;;;;;;5017257;28;20057;-61
2022/03/02 11:52:24;;;;;;;28.83;24.20;;;;;;;;;;5022221;28;20092;-62
2022/03/02 11:54:52;;;;;;;25.52;22.50;;;;;;;;;;5016739;28;20159;-61
2022/03/02 11:57:20;;;;;;;27.38;23.10;;;;;;;;;;5007192;28;20396;-59
2022/03/02 11:59:46;;;;;;;24.70;21.35;;;;;;;;;;5011357;28;20037;-60
2022/03/02 12:02:19;;;;;;;26.95;23.40;;;;;;;;;;5016774;28;20066;-61
2022/03/02 12:05:02;;;;;;;28.30;24.45;;;;;;;;;;5018905;28;20226;-62
2022/03/02 12:07:44;;;;;;;26.98;22.27;;;;;;;;;;5018556;28;20130;-61
2022/03/02 12:10:22;;;;;;;26.13;22.83;;;;;;;;;;5019384;28;20046;-60
2022/03/02 12:12:48;;;;;;;26.08;23.27;;;;;;;;;;5018477;28;20071;-62
2022/03/02 12:15:16;;;;;;;27.48;23.48;;;;;;;;;;5026115;28;20487;-61
2022/03/02 12:17:42;;;;;;;27.38;24.42;;;;;;;;;;5021157;28;20050;-60
2022/03/02 12:20:10;;;;;;;28.33;24.77;;;;;;;;;;5017494;28;20483;-61
2022/03/02 12:22:41;;;;;;;26.98;23.52;;;;;;;;;;5038624;28;20483;-62
2022/03/02 12:25:08;;;;;;;27.65;24.15;;;;;;;;;;5007312;28;20088;-62
2022/03/02 12:27:34;;;;;;;25.90;23.17;;;;;;;;;;5007771;28;20077;-62
2022/03/02 12:30:04;;;;;;;28.33;23.40;;;;;;;;;;5008219;28;20042;-63
2022/03/02 12:32:31;;;;;;;25.27;22.27;;;;;;;;;;5000931;28;20524;-62
2022/03/02 12:34:58;;;;;;;27.08;23.60;;;;;;;;;;5010373;28;20698;-62
2022/03/02 12:37:25;;;;;;;28.60;25.48;;;;;;;;;;5008586;28;20089;-63
2022/03/02 12:39:52;;;;;;;27.98;24.27;;;;;;;;;;5008607;28;20042;-62
2022/03/02 12:42:18;;;;;;;28.45;25.25;;;;;;;;;;5009080;28;20049;-62
2022/03/02 12:44:54;;;;;;;28.17;25.27;;;;;;;;;;5010252;28;20084;-61
2022/03/02 12:47:21;;;;;;;30.45;25.58;;;;;;;;;;5008345;28;20115;-62
2022/03/02 12:49:50;;;;;;;28.08;25.08;;;;;;;;;;5008691;28;20140;-63
2022/03/02 12:52:16;;;;;;;30.00;25.10;;;;;;;;;;5006903;28;20471;-62
2022/03/02 12:54:43;;;;;;;28.42;25.33;;;;;;;;;;5006951;28;20087;-62
2022/03/02 12:57:13;;;;;;;28.27;23.98;;;;;;;;;;5009293;28;20558;-62
2022/03/02 12:59:40;;;;;;;27.23;23.15;;;;;;;;;;5008980;28;20462;-60
2022/03/02 13:02:11;;;;;;;27.48;24.10;;;;;;;;;;5008687;28;20041;-61
2022/03/02 13:04:40;;;;;;;27.42;23.85;;;;;;;;;;5010532;28;20030;-60
2022/03/02 13:07:12;;;;;;;29.00;25.90;;;;;;;;;;5009935;28;20473;-61
2022/03/02 13:09:46;;;;;;;27.25;24.25;;;;;;;;;;4992119;28;20113;-61
2022/03/02 13:12:32;;;;;;;28.65;25.20;;;;;;;;;;5010210;28;20056;-61
2022/03/02 13:14:58;;;;;;;27.67;24.85;;;;;;;;;;5008485;28;20034;-61
2022/03/02 13:17:25;;;;;;;30.58;26.55;;;;;;;;;;5041580;28;20183;-60
2022/03/02 13:19:53;;;;;;;29.30;25.88;;;;;;;;;;5041130;28;20041;-61
2022/03/02 13:22:23;;;;;;;28.90;24.65;;;;;;;;;;5040233;28;20046;-61
2022/03/02 13:24:52;;;;;;;27.70;24.70;;;;;;;;;;5008556;28;20420;-61
2022/03/02 13:27:18;;;;;;;28.38;25.35;;;;;;;;;;5008418;28;20060;-61
2022/03/02 13:29:55;;;;;;;27.83;24.83;;;;;;;;;;5041636;28;20045;-61
2022/03/02 13:32:22;;;;;;;29.05;25.65;;;;;;;;;;5041206;28;20128;-61
2022/03/02 13:35:05;;;;;;;28.27;24.90;;;;;;;;;;5008263;28;20034;-60
2022/03/02 13:37:50;;;;;;;29.60;23.17;;;;;;;;;;5000755;28;20057;-60
2022/03/02 13:40:34;;;;;;;27.88;24.70;;;;;;;;;;5041494;28;20080;-61
2022/03/02 13:43:28;;;;;;;27.13;23.17;;;;;;;;;;5009622;28;20038;-61
2022/03/02 13:45:57;;;;;;;31.70;24.67;;;;;;;;;;5036288;28;20111;-61
2022/03/02 13:48:25;;;;;;;30.17;24.55;;;;;;;;;;5009320;28;20042;-60
2022/03/02 13:50:54;;;;;;;27.58;24.38;;;;;;;;;;5008933;28;20045;-62
2022/03/02 13:53:33;;;;;;;28.67;25.58;;;;;;;;;;5009489;28;20049;-63
2022/03/02 13:56:07;;;;;;;30.42;25.60;;;;;;;;;;5008220;28;20046;-62
2022/03/02 13:58:34;;;;;;;29.77;26.33;;;;;;;;;;5033990;28;20030;-61
2022/03/02 14:01:24;;;;;;;28.92;25.17;;;;;;;;;;4991827;28;20049;-61
2022/03/02 14:04:07;;;;;;;29.08;25.48;;;;;;;;;;5009421;28;20491;-61
2022/03/02 14:06:34;;;;;;;29.50;25.60;;;;;;;;;;5009765;28;20034;-59
2022/03/02 14:09:01;;;;;;;27.98;24.83;;;;;;;;;;5009443;28;20107;-62
2022/03/02 14:11:39;;;;;;;30.50;25.95;;;;;;;;;;5009044;28;20069;-62
2022/03/02 14:14:07;;;;;;;28.02;25.10;;;;;;;;;;5040834;28;21278;-61
2022/03/02 14:16:33;;;;;;;29.20;25.70;;;;;;;;;;5008406;28;20403;-63
2022/03/02 14:19:10;;;;;;;31.35;26.08;;;;;;;;;;5006963;28;20092;-62
2022/03/02 14:21:37;;;;;;;30.50;26.70;;;;;;;;;;5008242;28;20132;-62